Time;durP1;ratioP1;P1;durP2;ratioP2;P2;SDS_P1;SDS_P2;PMS_P1;PMS_P2;Temp;Humidity;BMP_temperature;BMP_pressure;BME280_temperature;BME280_humidity;BME280_pressure;Samples;Min_cycle;Max_cycle;Signal;HPM_P1;HPM_P2
2022/12/10 00:01:15;;;;;;;86.60;32.10;;;1.40;99.90;;;;;;4974924;28;20286;-78
2022/12/10 00:03:41;;;;;;;182.23;36.90;;;1.40;99.90;;;;;;4958933;28;20275;-78
2022/12/10 00:06:11;;;;;;;125.90;37.63;;;1.40;99.90;;;;;;4958347;28;20196;-78
2022/12/10 00:08:37;;;;;;;119.60;35.50;;;1.40;99.90;;;;;;4974848;28;20242;-79
2022/12/10 00:11:04;;;;;;;184.50;38.47;;;1.40;99.90;;;;;;4993379;28;20219;-79
2022/12/10 00:13:30;;;;;;;306.58;41.58;;;1.40;99.90;;;;;;4975202;28;20186;-78
2022/12/10 00:15:55;;;;;;;119.67;34.40;;;1.40;99.90;;;;;;4975037;28;20237;-79
2022/12/10 00:18:21;;;;;;;207.00;38.07;;;1.40;99.90;;;;;;4958735;28;21380;-79
2022/12/10 00:20:46;;;;;;;179.93;37.77;;;1.40;99.90;;;;;;4975075;28;20218;-79
2022/12/10 00:23:12;;;;;;;105.83;33.47;;;1.40;99.90;;;;;;4958669;28;20188;-80
2022/12/10 00:25:38;;;;;;;127.00;34.50;;;1.30;99.90;;;;;;4942780;28;20194;-81
2022/12/10 00:28:04;;;;;;;139.53;33.47;;;1.40;99.90;;;;;;4958533;28;20186;-79
2022/12/10 00:30:29;;;;;;;88.63;31.97;;;1.40;99.90;;;;;;4942274;28;20224;-80
2022/12/10 00:32:55;;;;;;;112.73;33.70;;;1.30;99.90;;;;;;4958028;28;21003;-80
2022/12/10 00:35:21;;;;;;;139.07;39.10;;;1.40;99.90;;;;;;4973765;28;20188;-80
2022/12/10 00:37:46;;;;;;;146.13;36.60;;;1.30;99.90;;;;;;4957320;28;20510;-79
2022/12/10 00:40:12;;;;;;;142.80;34.67;;;1.30;99.90;;;;;;4957545;28;20735;-79
2022/12/10 00:42:38;;;;;;;111.50;34.20;;;1.40;99.90;;;;;;4973322;28;20211;-80
2022/12/10 00:45:04;;;;;;;114.10;34.60;;;1.30;99.90;;;;;;4973549;28;20188;-79
2022/12/10 00:47:30;;;;;;;107.28;35.35;;;1.40;99.90;;;;;;4957676;28;20234;-79
2022/12/10 00:49:55;;;;;;;103.93;34.93;;;1.30;99.90;;;;;;4974371;28;20661;-80
2022/12/10 00:52:21;;;;;;;119.70;33.53;;;1.40;99.90;;;;;;4990789;28;20212;-79
2022/12/10 00:54:47;;;;;;;108.17;33.93;;;1.40;99.90;;;;;;4957366;28;20195;-78
2022/12/10 00:57:12;;;;;;;104.80;34.30;;;1.50;99.90;;;;;;4957563;28;20195;-78
2022/12/10 00:59:38;;;;;;;145.73;34.97;;;1.40;99.90;;;;;;4957215;28;20219;-79
2022/12/10 01:02:04;;;;;;;99.53;33.03;;;1.30;99.90;;;;;;4973703;28;20211;-78
2022/12/10 01:04:29;;;;;;;87.83;33.03;;;1.40;99.90;;;;;;4973850;28;20545;-78
2022/12/10 01:06:55;;;;;;;118.13;35.93;;;1.40;99.90;;;;;;4990797;28;20653;-78
2022/12/10 01:09:23;;;;;;;123.47;34.97;;;1.30;99.90;;;;;;4957336;28;20206;-79
2022/12/10 01:11:50;;;;;;;121.07;33.75;;;1.30;99.90;;;;;;4956590;28;20214;-80
2022/12/10 01:14:19;;;;;;;119.65;36.22;;;1.30;99.90;;;;;;4973317;28;20243;-77
2022/12/10 01:16:45;;;;;;;139.85;39.95;;;1.30;99.90;;;;;;4974080;28;20191;-78
2022/12/10 01:19:12;;;;;;;101.17;38.43;;;1.30;99.90;;;;;;4973546;28;20218;-78
2022/12/10 01:21:37;;;;;;;122.03;38.08;;;1.40;99.90;;;;;;4973141;28;20645;-78
2022/12/10 01:24:03;;;;;;;134.03;37.57;;;1.40;99.90;;;;;;4991101;28;20270;-78
2022/12/10 01:26:31;;;;;;;92.13;34.93;;;1.40;99.90;;;;;;4973685;28;21095;-78
2022/12/10 01:28:58;;;;;;;89.93;33.85;;;1.40;99.90;;;;;;4990270;28;20488;-79
2022/12/10 01:31:32;;;;;;;84.18;31.05;;;1.40;99.90;;;;;;4956555;28;20311;-78
2022/12/10 01:33:58;;;;;;;143.70;35.70;;;1.40;99.90;;;;;;4972947;28;20266;-78
2022/12/10 01:36:33;;;;;;;94.40;34.35;;;1.40;99.90;;;;;;4972980;28;20187;-79
2022/12/10 01:39:00;;;;;;;146.63;37.80;;;1.40;99.90;;;;;;4990197;28;21035;-78
2022/12/10 01:41:35;;;;;;;140.90;34.35;;;1.40;99.90;;;;;;4972526;28;20306;-78
2022/12/10 01:44:10;;;;;;;118.95;34.88;;;1.40;99.90;;;;;;4989344;28;20187;-78
2022/12/10 01:46:46;;;;;;;101.30;34.83;;;1.40;99.90;;;;;;4989930;28;20723;-78
2022/12/10 01:49:31;;;;;;;88.43;32.78;;;1.40;99.90;;;;;;4990237;28;20653;-79
2022/12/10 01:51:56;;;;;;;81.82;31.08;;;1.50;99.90;;;;;;4972639;28;20753;-79
2022/12/10 01:54:32;;;;;;;98.20;32.40;;;1.50;99.90;;;;;;4972499;28;20286;-79
2022/12/10 01:57:04;;;;;;;95.80;33.70;;;1.50;99.90;;;;;;4990086;28;20203;-78
2022/12/10 01:59:30;;;;;;;191.02;37.30;;;1.50;99.90;;;;;;4989710;28;20651;-78
2022/12/10 02:02:28;;;;;;;115.25;34.78;;;1.40;99.90;;;;;;4972618;28;20211;-78
2022/12/10 02:05:26;;;;;;;113.85;34.00;;;1.40;99.90;;;;;;4973138;28;20620;-78
2022/12/10 02:08:18;;;;;;;92.43;33.08;;;1.50;99.90;;;;;;4989852;28;20675;-78
2022/12/10 02:10:55;;;;;;;150.10;35.03;;;1.50;99.90;;;;;;4989975;28;20210;-78
2022/12/10 02:13:36;;;;;;;113.97;34.08;;;1.50;99.90;;;;;;4972421;28;20623;-78
2022/12/10 02:16:05;;;;;;;84.43;33.05;;;1.40;99.90;;;;;;4989746;28;20172;-79
2022/12/10 02:18:43;;;;;;;99.60;31.00;;;1.40;99.90;;;;;;4973018;28;20213;-80
2022/12/10 02:21:24;;;;;;;124.40;34.95;;;1.40;99.90;;;;;;4990014;28;20322;-79
2022/12/10 02:23:59;;;;;;;100.93;33.65;;;1.40;99.90;;;;;;4972356;28;20284;-79
2022/12/10 02:26:43;;;;;;;95.70;33.45;;;1.50;99.90;;;;;;4990012;28;20200;-80
2022/12/10 02:29:23;;;;;;;165.15;36.15;;;1.50;99.90;;;;;;4973037;28;20206;-79
2022/12/10 02:32:21;;;;;;;101.32;33.60;;;1.50;99.90;;;;;;4972129;28;20222;-79
2022/12/10 02:34:51;;;;;;;178.90;37.88;;;1.50;99.90;;;;;;4989929;28;20660;-80
2022/12/10 02:37:23;;;;;;;170.73;38.67;;;1.50;99.90;;;;;;4972151;28;20190;-78
2022/12/10 02:39:53;;;;;;;143.77;39.15;;;1.40;99.90;;;;;;4972222;28;20210;-79
2022/12/10 02:42:21;;;;;;;113.40;36.10;;;1.40;99.90;;;;;;4972427;28;20293;-79
2022/12/10 02:44:49;;;;;;;179.98;40.95;;;1.40;99.90;;;;;;4990492;28;20194;-78
2022/12/10 02:47:16;;;;;;;108.95;36.58;;;1.40;99.90;;;;;;4975438;28;20290;-80
2022/12/10 02:49:44;;;;;;;111.78;36.58;;;1.40;99.90;;;;;;4958214;28;20330;-79
2022/12/10 02:52:14;;;;;;;134.38;38.78;;;1.40;99.90;;;;;;4973624;28;20202;-79
2022/12/10 02:54:44;;;;;;;238.25;44.33;;;1.40;99.90;;;;;;4976366;28;20754;-79
2022/12/10 02:57:21;;;;;;;97.95;36.72;;;1.40;99.90;;;;;;4962499;28;20214;-79
2022/12/10 03:00:00;;;;;;;176.43;38.30;;;1.40;99.90;;;;;;4978047;28;20214;-80
2022/12/10 03:02:40;;;;;;;143.60;39.53;;;1.30;99.90;;;;;;4978493;28;20311;-80
2022/12/10 03:05:31;;;;;;;111.13;35.05;;;1.30;99.90;;;;;;4976427;28;20189;-80
2022/12/10 03:08:35;;;;;;;126.40;34.70;;;1.40;99.90;;;;;;4975742;28;20179;-80
2022/12/10 03:11:15;;;;;;;169.55;38.63;;;1.40;99.90;;;;;;4959174;28;20268;-79
2022/12/10 03:14:19;;;;;;;265.77;44.40;;;1.40;99.90;;;;;;4992263;28;20176;-79
2022/12/10 03:16:51;;;;;;;127.45;37.33;;;1.30;99.90;;;;;;4992565;28;20191;-80
2022/12/10 03:19:20;;;;;;;201.20;40.83;;;1.40;99.90;;;;;;4992355;28;20207;-77
2022/12/10 03:21:48;;;;;;;180.10;40.83;;;1.40;99.90;;;;;;4974631;28;20286;-75
2022/12/10 03:24:15;;;;;;;164.30;37.55;;;1.40;99.90;;;;;;4974718;28;20262;-76
2022/12/10 03:26:43;;;;;;;84.32;33.83;;;1.40;99.90;;;;;;4991997;28;20175;-78
2022/12/10 03:29:22;;;;;;;134.93;39.03;;;1.40;99.90;;;;;;4958270;28;20285;-76
2022/12/10 03:31:49;;;;;;;138.93;37.65;;;1.30;99.90;;;;;;4991502;28;20219;-77
2022/12/10 03:34:15;;;;;;;91.85;34.63;;;1.30;99.90;;;;;;4991954;28;20830;-74
2022/12/10 03:36:42;;;;;;;101.72;31.83;;;1.30;99.90;;;;;;4974443;28;20204;-78
2022/12/10 03:39:08;;;;;;;111.07;34.35;;;1.30;99.90;;;;;;4958261;28;20214;-77
2022/12/10 03:41:33;;;;;;;72.97;29.88;;;1.30;99.90;;;;;;4991608;28;20202;-74
2022/12/10 03:44:00;;;;;;;66.80;28.97;;;1.30;99.90;;;;;;4991481;28;20195;-75
2022/12/10 03:46:28;;;;;;;88.10;33.10;;;1.40;99.90;;;;;;4973873;28;20239;-76
2022/12/10 03:48:54;;;;;;;76.50;30.60;;;1.30;99.90;;;;;;4991706;28;20271;-73
2022/12/10 03:51:20;;;;;;;60.40;27.70;;;1.30;99.90;;;;;;4991590;28;20190;-75
2022/12/10 03:53:46;;;;;;;64.53;27.40;;;1.30;99.90;;;;;;4973945;28;20190;-75
2022/12/10 03:56:11;;;;;;;63.90;28.20;;;1.30;99.90;;;;;;4991264;28;20195;-75
2022/12/10 03:58:37;;;;;;;60.53;28.33;;;1.30;99.90;;;;;;4973947;28;20250;-75
2022/12/10 04:01:03;;;;;;;65.93;29.50;;;1.40;99.90;;;;;;4973610;28;20490;-74
2022/12/10 04:03:29;;;;;;;55.53;28.20;;;1.30;99.90;;;;;;4991189;28;20436;-74
2022/12/10 04:06:02;;;;;;;58.60;28.03;;;1.30;99.90;;;;;;4973123;28;20186;-74
2022/12/10 04:08:27;;;;;;;66.25;28.95;;;1.30;99.90;;;;;;4973293;28;20187;-74
2022/12/10 04:10:53;;;;;;;60.47;28.30;;;1.30;99.90;;;;;;4991189;28;20680;-74
2022/12/10 04:18:47;;;;;;;54.53;27.88;;;1.30;99.90;;;;;;4990832;28;21041;-73
2022/12/10 04:26:52;;;;;;;48.22;25.70;;;1.40;99.90;;;;;;4977378;28;20257;-75
2022/12/10 04:29:19;;;;;;;54.03;25.95;;;1.40;99.90;;;;;;4991457;28;20167;-75
2022/12/10 04:31:45;;;;;;;60.47;28.05;;;1.40;99.90;;;;;;4992419;28;20271;-74
2022/12/10 04:34:10;;;;;;;57.83;28.50;;;1.40;99.90;;;;;;4973949;28;20178;-75
2022/12/10 04:36:36;;;;;;;61.10;28.73;;;1.40;99.90;;;;;;4973874;28;20218;-74
2022/12/10 04:39:02;;;;;;;58.80;27.97;;;1.40;99.90;;;;;;4991259;28;20187;-74
2022/12/10 04:41:27;;;;;;;54.78;27.10;;;1.40;99.90;;;;;;4990890;28;20631;-75
2022/12/10 04:43:53;;;;;;;62.00;30.40;;;1.40;99.90;;;;;;4973515;28;20194;-74
2022/12/10 04:46:18;;;;;;;62.83;29.87;;;1.40;99.90;;;;;;4990843;28;20612;-74
2022/12/10 04:48:44;;;;;;;60.90;28.87;;;1.40;99.90;;;;;;4973175;28;20225;-74
2022/12/10 04:51:09;;;;;;;57.17;27.80;;;1.40;99.90;;;;;;4990590;28;20234;-74
2022/12/10 04:53:35;;;;;;;57.60;27.20;;;1.40;99.90;;;;;;4941350;28;20241;-74
2022/12/10 04:56:01;;;;;;;57.37;27.33;;;1.40;99.90;;;;;;4990126;28;20186;-74
2022/12/10 04:58:30;;;;;;;53.87;27.70;;;1.40;99.90;;;;;;4990271;28;20199;-74
2022/12/10 05:01:09;;;;;;;50.70;26.42;;;1.40;99.90;;;;;;4956657;28;20291;-74
2022/12/10 05:03:35;;;;;;;52.42;26.52;;;1.50;99.90;;;;;;4990262;28;20187;-74
2022/12/10 05:06:12;;;;;;;61.97;28.60;;;1.50;99.90;;;;;;4989882;28;20203;-74
2022/12/10 05:08:39;;;;;;;59.63;30.60;;;1.50;99.90;;;;;;4989887;28;20278;-74
2022/12/10 05:11:14;;;;;;;56.42;30.23;;;1.40;99.90;;;;;;4989852;28;20198;-74
2022/12/10 05:13:41;;;;;;;64.43;31.30;;;1.50;99.90;;;;;;4989924;28;20185;-74
2022/12/10 05:16:09;;;;;;;62.85;31.42;;;1.50;99.90;;;;;;4989907;28;20191;-74
2022/12/10 05:18:35;;;;;;;58.08;26.48;;;1.50;99.90;;;;;;4971581;28;20219;-74
2022/12/10 05:21:04;;;;;;;58.60;26.35;;;1.40;99.90;;;;;;4972140;28;20655;-74
2022/12/10 05:23:30;;;;;;;49.45;26.15;;;1.50;99.90;;;;;;4990084;28;20528;-74
2022/12/10 05:26:04;;;;;;;65.43;25.98;;;1.40;99.90;;;;;;4972346;28;20183;-74
2022/12/10 05:28:31;;;;;;;52.83;24.33;;;1.50;99.90;;;;;;4989999;28;20189;-74
2022/12/10 05:30:57;;;;;;;50.42;25.05;;;1.40;99.90;;;;;;4989547;28;20653;-74
2022/12/10 05:33:24;;;;;;;58.22;24.85;;;1.40;99.90;;;;;;4989603;28;20202;-74
2022/12/10 05:36:00;;;;;;;47.47;24.45;;;1.40;99.90;;;;;;4989286;28;20246;-74
2022/12/10 05:38:27;;;;;;;47.20;25.33;;;1.40;99.90;;;;;;4972237;28;20201;-75
2022/12/10 05:40:53;;;;;;;55.00;25.73;;;1.30;99.90;;;;;;4989439;28;20246;-74
2022/12/10 05:43:19;;;;;;;55.70;26.77;;;1.40;99.90;;;;;;4989960;28;20210;-74
2022/12/10 05:45:46;;;;;;;47.13;24.90;;;1.40;99.90;;;;;;4989571;28;20515;-75
2022/12/10 05:48:13;;;;;;;58.55;30.05;;;1.30;99.90;;;;;;4989715;28;20423;-74
2022/12/10 05:50:40;;;;;;;62.70;30.95;;;1.40;99.90;;;;;;4971867;28;20249;-75
2022/12/10 05:53:05;;;;;;;48.90;26.38;;;1.40;99.90;;;;;;4989474;28;20190;-74
2022/12/10 05:55:32;;;;;;;53.43;27.43;;;1.40;99.90;;;;;;4989700;28;20197;-74
2022/12/10 05:58:01;;;;;;;70.22;30.00;;;1.50;99.90;;;;;;4989528;28;20214;-74
2022/12/10 06:00:28;;;;;;;63.40;27.25;;;1.50;99.90;;;;;;4989237;28;20216;-74
2022/12/10 06:02:54;;;;;;;53.92;26.50;;;1.40;99.90;;;;;;4989516;28;20176;-74
2022/12/10 06:05:20;;;;;;;65.43;28.27;;;1.40;99.90;;;;;;4989538;28;20186;-74
2022/12/10 06:07:45;;;;;;;49.70;26.13;;;1.50;99.90;;;;;;4989460;28;20712;-74
2022/12/10 06:10:12;;;;;;;55.43;28.40;;;1.50;99.90;;;;;;4971657;28;20486;-74
2022/12/10 06:12:38;;;;;;;46.05;24.92;;;1.40;99.90;;;;;;4989528;28;20874;-75
2022/12/10 06:15:04;;;;;;;54.00;27.40;;;1.50;99.90;;;;;;4989543;28;20205;-75
2022/12/10 06:17:30;;;;;;;55.00;28.52;;;1.50;99.90;;;;;;4971894;28;20512;-74
2022/12/10 06:19:56;;;;;;;48.60;24.77;;;1.50;99.90;;;;;;4989387;28;20298;-74
2022/12/10 06:22:21;;;;;;;59.23;28.13;;;1.50;99.90;;;;;;4955648;28;20215;-74
2022/12/10 06:24:47;;;;;;;59.17;28.07;;;1.50;99.90;;;;;;4972187;28;20190;-75
2022/12/10 06:27:12;;;;;;;49.20;27.00;;;1.50;99.90;;;;;;4972555;28;20269;-74
2022/12/10 06:29:38;;;;;;;47.87;25.97;;;1.50;99.90;;;;;;4974806;28;20200;-75
2022/12/10 06:32:04;;;;;;;60.90;28.33;;;1.50;99.90;;;;;;4993301;28;20242;-74
2022/12/10 06:34:29;;;;;;;59.10;28.00;;;1.50;99.90;;;;;;4975776;28;20657;-75
2022/12/10 06:36:55;;;;;;;55.00;26.20;;;1.40;99.90;;;;;;4975720;28;20736;-74
2022/12/10 06:39:20;;;;;;;52.50;26.30;;;1.40;99.90;;;;;;4975364;28;20212;-75
2022/12/10 06:41:46;;;;;;;55.87;26.23;;;1.30;99.90;;;;;;4975177;28;20562;-74
2022/12/10 06:44:12;;;;;;;64.47;26.50;;;1.30;99.90;;;;;;4992598;28;20182;-74
2022/12/10 06:46:39;;;;;;;54.22;25.35;;;1.20;99.90;;;;;;4992569;28;20282;-74
2022/12/10 06:49:07;;;;;;;52.83;25.83;;;1.20;99.90;;;;;;4992628;28;20188;-75
2022/12/10 06:51:33;;;;;;;59.15;27.50;;;1.20;99.90;;;;;;4975584;28;20231;-74
2022/12/10 06:53:58;;;;;;;52.80;25.30;;;1.20;99.90;;;;;;4992424;28;20240;-75
2022/12/10 06:56:24;;;;;;;47.10;24.30;;;1.20;99.90;;;;;;4992783;28;20495;-74
2022/12/10 06:58:49;;;;;;;56.00;24.43;;;1.20;99.90;;;;;;4992448;28;20275;-74
2022/12/10 07:01:21;;;;;;;45.83;23.10;;;1.20;99.90;;;;;;4992415;28;20221;-75
2022/12/10 07:03:51;;;;;;;48.30;25.58;;;1.10;99.90;;;;;;4992403;28;20182;-75
2022/12/10 07:06:18;;;;;;;48.05;23.67;;;1.10;99.90;;;;;;4992311;28;20209;-74
2022/12/10 07:08:44;;;;;;;45.95;24.27;;;1.10;99.90;;;;;;4974517;28;20182;-74
2022/12/10 07:11:12;;;;;;;45.10;24.23;;;1.10;99.90;;;;;;4991840;28;20209;-76
2022/12/10 07:13:37;;;;;;;48.38;25.67;;;1.10;99.90;;;;;;4991592;28;20423;-76
2022/12/10 07:16:11;;;;;;;52.43;25.37;;;1.20;99.90;;;;;;4991555;28;20190;-76
2022/12/10 07:18:37;;;;;;;44.75;24.52;;;1.20;99.90;;;;;;4974025;28;20511;-76
2022/12/10 07:21:13;;;;;;;46.20;23.57;;;1.30;99.90;;;;;;4973942;28;20226;-76
2022/12/10 07:23:38;;;;;;;48.83;24.92;;;1.20;99.90;;;;;;4974033;28;20188;-76
2022/12/10 07:26:04;;;;;;;44.80;24.10;;;1.30;99.90;;;;;;4973930;28;20191;-76
2022/12/10 07:28:30;;;;;;;42.17;23.27;;;1.30;99.90;;;;;;4974011;28;20265;-76
2022/12/10 07:31:04;;;;;;;54.37;23.00;;;1.30;99.90;;;;;;4991189;28;20760;-76
2022/12/10 07:33:30;;;;;;;60.60;23.90;;;1.30;99.90;;;;;;4973725;28;20205;-76
2022/12/10 07:35:56;;;;;;;47.23;24.80;;;1.30;99.90;;;;;;4973980;28;20202;-76
2022/12/10 07:38:23;;;;;;;46.03;23.27;;;1.30;99.90;;;;;;4973674;28;20203;-76
2022/12/10 07:40:49;;;;;;;46.08;23.98;;;1.30;99.90;;;;;;4990429;28;20960;-76
2022/12/10 07:43:15;;;;;;;49.90;24.00;;;1.30;99.90;;;;;;4991277;28;20692;-75
2022/12/10 07:45:40;;;;;;;46.93;25.10;;;1.30;99.90;;;;;;4957448;28;20207;-76
2022/12/10 07:48:06;;;;;;;42.40;23.23;;;1.20;99.90;;;;;;4973453;28;20273;-75
2022/12/10 07:50:32;;;;;;;47.90;24.40;;;1.20;99.90;;;;;;4991199;28;20415;-76
2022/12/10 07:52:57;;;;;;;44.03;22.67;;;1.10;99.90;;;;;;4957538;28;20434;-76
2022/12/10 07:55:23;;;;;;;42.77;22.20;;;1.10;99.90;;;;;;4973516;28;20196;-76
2022/12/10 07:57:49;;;;;;;41.47;22.60;;;1.20;99.90;;;;;;4957087;28;20190;-76
2022/12/10 08:00:14;;;;;;;38.27;21.13;;;1.20;99.90;;;;;;4973442;28;20713;-76
2022/12/10 08:02:40;;;;;;;42.77;23.60;;;1.20;99.90;;;;;;4991105;28;20187;-76
2022/12/10 08:05:06;;;;;;;38.70;23.27;;;1.20;99.90;;;;;;4973388;28;20182;-76
2022/12/10 08:07:33;;;;;;;47.90;25.17;;;1.20;99.90;;;;;;4990785;28;20195;-76
2022/12/10 08:09:58;;;;;;;47.85;24.05;;;1.30;99.90;;;;;;4990594;28;20558;-76
2022/12/10 08:12:24;;;;;;;43.40;23.93;;;1.30;99.90;;;;;;4990721;28;20305;-76
2022/12/10 08:14:50;;;;;;;40.57;21.93;;;1.30;99.90;;;;;;4973226;28;20188;-76
2022/12/10 08:17:15;;;;;;;45.17;22.83;;;1.30;99.90;;;;;;4990847;28;20198;-76
2022/12/10 08:19:41;;;;;;;39.97;24.00;;;1.40;99.90;;;;;;4990681;28;20599;-75
2022/12/10 08:22:07;;;;;;;43.03;23.87;;;1.30;99.90;;;;;;4973108;28;20202;-76
2022/12/10 08:24:32;;;;;;;41.70;22.87;;;1.30;99.90;;;;;;4990961;28;20184;-75
2022/12/10 08:26:58;;;;;;;38.83;22.40;;;1.30;99.90;;;;;;4990979;28;20796;-75
2022/12/10 08:29:23;;;;;;;41.83;24.30;;;1.30;99.90;;;;;;4990809;28;20688;-76
2022/12/10 08:31:49;;;;;;;40.13;21.83;;;1.30;99.90;;;;;;4973952;28;20223;-76
2022/12/10 08:34:17;;;;;;;42.80;21.23;;;1.30;99.90;;;;;;4978870;28;20190;-76
2022/12/10 08:36:44;;;;;;;38.17;21.95;;;1.30;99.90;;;;;;4961188;28;20274;-76
2022/12/10 08:39:10;;;;;;;39.85;22.67;;;1.30;99.90;;;;;;4978488;28;20575;-76
2022/12/10 08:41:36;;;;;;;40.35;22.67;;;1.30;99.90;;;;;;4996409;28;20626;-76
2022/12/10 08:44:02;;;;;;;42.80;22.40;;;1.30;99.90;;;;;;4979348;28;20195;-75
2022/12/10 08:46:28;;;;;;;49.95;25.58;;;1.40;99.90;;;;;;4997524;28;20472;-75
2022/12/10 08:48:54;;;;;;;43.00;25.10;;;1.40;99.90;;;;;;4999409;28;20254;-75
2022/12/10 08:51:20;;;;;;;45.13;24.40;;;1.40;99.90;;;;;;4998189;28;20690;-75
2022/12/10 08:53:47;;;;;;;42.22;24.38;;;1.40;99.90;;;;;;4994056;28;20428;-76
2022/12/10 08:56:13;;;;;;;34.35;20.85;;;1.50;99.90;;;;;;4991712;28;20182;-75
2022/12/10 08:58:39;;;;;;;38.38;22.60;;;1.50;99.90;;;;;;4974834;28;20191;-75
2022/12/10 09:01:15;;;;;;;37.23;21.60;;;1.50;99.90;;;;;;4980302;28;20221;-76
2022/12/10 09:03:40;;;;;;;44.80;23.40;;;1.50;99.90;;;;;;4958555;28;20948;-76
2022/12/10 09:06:12;;;;;;;41.10;22.67;;;1.60;99.90;;;;;;4975982;28;20196;-76
2022/12/10 09:08:38;;;;;;;41.67;23.60;;;1.60;99.90;;;;;;4978217;28;20929;-76
2022/12/10 09:11:10;;;;;;;43.60;24.90;;;1.60;99.90;;;;;;4975599;28;20210;-76
2022/12/10 09:13:36;;;;;;;46.08;22.90;;;1.50;99.90;;;;;;4991439;28;20433;-76
2022/12/10 09:16:02;;;;;;;41.42;22.75;;;1.50;99.90;;;;;;4991799;28;20849;-75
2022/12/10 09:18:28;;;;;;;35.88;20.83;;;1.50;99.90;;;;;;4990301;28;20216;-76
2022/12/10 09:20:53;;;;;;;44.27;23.97;;;1.50;99.90;;;;;;4990026;28;20720;-75
2022/12/10 09:23:19;;;;;;;45.00;21.57;;;1.40;99.90;;;;;;4991696;28;20193;-76
2022/12/10 09:25:45;;;;;;;50.27;23.17;;;1.40;99.90;;;;;;4989994;28;20551;-76
2022/12/10 09:28:10;;;;;;;41.70;23.90;;;1.40;99.90;;;;;;4989565;28;20189;-76
2022/12/10 09:30:36;;;;;;;39.73;23.87;;;1.40;99.90;;;;;;4989474;28;20208;-76
2022/12/10 09:33:02;;;;;;;44.77;25.23;;;1.40;99.90;;;;;;4989342;28;20776;-76
2022/12/10 09:35:27;;;;;;;45.43;24.17;;;1.40;99.90;;;;;;4971989;28;20179;-76
2022/12/10 09:37:54;;;;;;;45.50;25.15;;;1.50;99.90;;;;;;4971987;28;20541;-76
2022/12/10 09:40:36;;;;;;;48.10;26.30;;;1.60;99.90;;;;;;4989166;28;20242;-76
2022/12/10 09:43:06;;;;;;;48.65;25.83;;;1.50;99.90;;;;;;4989658;28;20168;-76
2022/12/10 09:45:32;;;;;;;45.80;26.67;;;1.60;99.90;;;;;;4989156;28;20190;-77
2022/12/10 09:48:20;;;;;;;40.53;23.80;;;1.60;99.90;;;;;;4989147;28;20179;-76
2022/12/10 09:50:53;;;;;;;43.72;25.10;;;1.60;99.90;;;;;;4989042;28;20200;-75
2022/12/10 09:53:20;;;;;;;39.00;23.80;;;1.60;99.90;;;;;;4989040;28;20189;-76
2022/12/10 09:55:48;;;;;;;66.50;36.90;;;1.60;99.90;;;;;;4955354;28;20194;-75
2022/12/10 09:58:19;;;;;;;54.47;29.35;;;1.60;99.90;;;;;;4989111;28;20214;-76
2022/12/10 10:00:49;;;;;;;48.65;27.48;;;1.70;99.90;;;;;;4971268;28;20228;-76
2022/12/10 10:03:16;;;;;;;41.40;26.45;;;1.70;99.90;;;;;;4989426;28;20229;-76
2022/12/10 10:05:51;;;;;;;43.22;26.10;;;1.60;99.90;;;;;;4993174;28;20509;-76
2022/12/10 10:08:27;;;;;;;44.78;25.42;;;1.70;99.90;;;;;;4975368;28;20186;-76
2022/12/10 10:10:52;;;;;;;42.83;24.58;;;1.70;99.90;;;;;;4993043;28;20658;-75
2022/12/10 10:13:40;;;;;;;40.60;22.27;;;1.70;99.90;;;;;;4992849;28;20194;-75
2022/12/10 10:16:27;;;;;;;38.90;23.05;;;1.70;99.90;;;;;;4975210;28;20548;-76
2022/12/10 10:18:56;;;;;;;36.25;23.67;;;1.70;99.90;;;;;;4992684;28;20190;-76
2022/12/10 10:21:38;;;;;;;40.67;23.02;;;1.70;99.90;;;;;;4992621;28;20217;-76
2022/12/10 10:24:06;;;;;;;39.20;23.23;;;1.70;99.90;;;;;;4992916;28;20215;-76
2022/12/10 10:26:32;;;;;;;44.90;24.13;;;1.80;99.90;;;;;;4992560;28;20669;-76
2022/12/10 10:29:00;;;;;;;42.67;24.70;;;1.80;99.90;;;;;;4992597;28;20206;-76
2022/12/10 10:31:29;;;;;;;42.83;23.23;;;1.80;99.90;;;;;;4992502;28;20209;-76
2022/12/10 10:34:20;;;;;;;40.85;23.30;;;1.70;99.90;;;;;;4974933;28;20201;-76
2022/12/10 10:36:46;;;;;;;41.22;24.20;;;1.70;99.90;;;;;;4985246;28;20249;-75
2022/12/10 10:39:18;;;;;;;41.85;23.70;;;1.90;99.90;;;;;;4975074;28;20661;-76
2022/12/10 10:41:50;;;;;;;47.90;24.50;;;1.90;99.90;;;;;;4992482;28;20246;-76
2022/12/10 10:44:18;;;;;;;43.30;24.67;;;1.90;99.90;;;;;;4975050;28;20215;-76
2022/12/10 10:46:46;;;;;;;44.83;25.08;;;2.00;99.90;;;;;;4992638;28;20563;-76
2022/12/10 10:49:28;;;;;;;40.88;24.10;;;2.00;99.90;;;;;;4992743;28;20230;-76
2022/12/10 10:52:00;;;;;;;36.00;21.70;;;2.00;99.90;;;;;;4975278;28;20208;-76
2022/12/10 10:54:39;;;;;;;44.50;23.80;;;2.00;99.90;;;;;;4992877;28;20599;-76
2022/12/10 10:57:24;;;;;;;33.90;20.65;;;2.00;99.90;;;;;;4992787;28;20160;-76
2022/12/10 11:00:00;;;;;;;39.65;24.02;;;1.90;99.90;;;;;;4975023;28;20217;-76
2022/12/10 11:02:41;;;;;;;38.22;22.67;;;1.90;99.90;;;;;;4992187;28;20257;-76
2022/12/10 11:05:14;;;;;;;36.35;21.67;;;1.80;99.90;;;;;;4992258;28;20235;-76
2022/12/10 11:07:40;;;;;;;44.42;23.63;;;1.80;99.90;;;;;;4991998;28;20178;-76
2022/12/10 11:10:22;;;;;;;45.80;24.17;;;1.90;99.90;;;;;;4991981;28;20541;-76
2022/12/10 11:13:06;;;;;;;187.38;54.80;;;1.90;99.90;;;;;;4958588;28;20506;-76
2022/12/10 11:15:39;;;;;;;76.30;30.00;;;2.00;99.90;;;;;;4974214;28;20204;-76
2022/12/10 11:18:27;;;;;;;43.92;22.90;;;2.10;99.90;;;;;;4991782;28;20184;-76
2022/12/10 11:21:03;;;;;;;67.82;27.92;;;1.90;99.90;;;;;;4991236;28;20242;-76
2022/12/10 11:23:41;;;;;;;59.15;28.90;;;2.00;99.90;;;;;;4991759;28;20270;-76
2022/12/10 11:26:21;;;;;;;53.55;25.50;;;1.90;99.90;;;;;;4991597;28;20195;-76
2022/12/10 11:29:13;;;;;;;39.40;22.92;;;2.00;99.90;;;;;;4991607;28;20205;-75
2022/12/10 11:32:03;;;;;;;58.30;26.23;;;1.90;99.90;;;;;;4973712;28;20213;-76
2022/12/10 11:34:47;;;;;;;53.55;26.10;;;2.00;99.90;;;;;;4991672;28;20182;-76
2022/12/10 11:37:31;;;;;;;44.28;23.13;;;2.00;99.90;;;;;;4974749;28;20256;-76
2022/12/10 11:40:12;;;;;;;40.90;24.05;;;2.10;99.90;;;;;;4992228;28;20231;-76
2022/12/10 11:43:22;;;;;;;39.75;21.02;;;2.20;99.90;;;;;;4973551;28;20210;-76
2022/12/10 11:46:43;;;;;;;40.28;22.73;;;2.10;99.90;;;;;;4978326;28;20265;-76
2022/12/10 11:49:55;;;;;;;34.53;21.58;;;2.10;99.90;;;;;;4901953;29;20293;-76
2022/12/10 11:52:29;;;;;;;37.75;22.40;;;2.20;99.90;;;;;;4970606;28;20221;-76
2022/12/10 11:55:16;;;;;;;36.78;22.25;;;2.20;99.90;;;;;;4991178;28;20194;-76
2022/12/10 11:58:20;;;;;;;37.67;20.05;;;2.20;99.90;;;;;;4973465;28;20272;-76
2022/12/10 12:01:05;;;;;;;34.97;18.92;;;2.00;99.90;;;;;;4990960;28;20251;-75
2022/12/10 12:03:42;;;;;;;35.25;19.83;;;1.90;99.90;;;;;;4991194;28;20210;-76
2022/12/10 12:06:18;;;;;;;37.20;20.27;;;1.90;99.90;;;;;;4990858;28;20183;-76
2022/12/10 12:08:51;;;;;;;30.73;19.40;;;1.90;99.90;;;;;;4973025;28;20190;-75
2022/12/10 12:11:47;;;;;;;33.28;19.88;;;1.80;99.90;;;;;;4990764;28;20203;-75
2022/12/10 12:14:29;;;;;;;33.50;19.73;;;1.90;99.90;;;;;;4972998;28;20836;-75
2022/12/10 12:17:18;;;;;;;34.38;18.77;;;1.80;99.90;;;;;;4990586;28;20183;-75
2022/12/10 12:19:52;;;;;;;32.25;19.30;;;1.90;99.90;;;;;;4990610;28;20247;-76
2022/12/10 12:22:32;;;;;;;35.97;20.50;;;2.00;99.90;;;;;;4990515;28;20203;-75
2022/12/10 12:25:06;;;;;;;37.35;20.67;;;2.10;99.90;;;;;;4990484;28;20641;-76
2022/12/10 12:27:43;;;;;;;36.13;20.40;;;2.10;99.90;;;;;;4990005;28;20200;-75
2022/12/10 12:30:18;;;;;;;29.08;17.67;;;2.20;99.90;;;;;;4990638;28;20739;-76
2022/12/10 12:33:13;;;;;;;31.25;18.70;;;2.00;99.90;;;;;;4972519;28;20212;-76
2022/12/10 12:35:51;;;;;;;31.50;18.52;;;2.00;99.90;;;;;;4972581;28;20202;-76
2022/12/10 12:38:25;;;;;;;32.22;18.60;;;2.10;99.90;;;;;;4972738;28;20250;-75
2022/12/10 12:41:12;;;;;;;26.20;17.52;;;2.00;99.90;;;;;;4989902;28;20221;-76
2022/12/10 12:44:06;;;;;;;28.65;16.70;;;2.00;99.90;;;;;;4990023;28;20221;-76
2022/12/10 12:46:46;;;;;;;28.48;17.17;;;2.00;99.90;;;;;;4979281;28;20609;-76
2022/12/10 12:49:23;;;;;;;27.20;16.92;;;2.00;99.90;;;;;;4989933;28;20242;-76
2022/12/10 12:51:59;;;;;;;29.10;16.65;;;1.90;99.90;;;;;;4989911;28;20197;-76
2022/12/10 12:54:24;;;;;;;26.80;15.55;;;1.90;99.90;;;;;;4989960;28;20753;-76
2022/12/10 12:56:50;;;;;;;26.97;16.10;;;1.80;99.90;;;;;;4972342;28;20285;-76
2022/12/10 12:59:41;;;;;;;25.63;16.40;;;1.80;99.90;;;;;;4989645;28;20179;-76
2022/12/10 13:02:41;;;;;;;31.92;18.52;;;1.70;99.90;;;;;;4986499;28;20213;-76
2022/12/10 13:05:18;;;;;;;31.10;20.65;;;1.70;99.90;;;;;;4989903;28;20742;-76
2022/12/10 13:07:45;;;;;;;30.63;17.85;;;1.70;99.90;;;;;;4989721;28;20179;-75